createdAt,value
2022-10-27T00:02:13.050Z,6.72
2022-10-27T00:04:39.639Z,6.25
2022-10-27T00:07:06.220Z,6.93
2022-10-27T00:09:32.791Z,7.20
2022-10-27T00:11:59.337Z,7.22
2022-10-27T00:14:26.003Z,6.65
2022-10-27T00:16:54.856Z,6.10
2022-10-27T00:19:23.183Z,6.78
2022-10-27T00:21:51.634Z,7.13
2022-10-27T00:24:19.139Z,6.72
2022-10-27T00:26:46.248Z,6.97
2022-10-27T00:29:12.933Z,7.20
2022-10-27T00:31:39.632Z,6.90
2022-10-27T00:34:06.277Z,6.68
2022-10-27T00:36:32.909Z,6.65
2022-10-27T00:39:00.468Z,7.10
2022-10-27T00:41:30.509Z,7.18
2022-10-27T00:43:59.449Z,6.20
2022-10-27T00:46:25.935Z,7.00
2022-10-27T00:48:58.477Z,6.15
2022-10-27T00:51:25.576Z,6.43
2022-10-27T00:53:52.795Z,5.80
2022-10-27T00:56:20.478Z,5.85
2022-10-27T00:58:47.587Z,6.15
2022-10-27T01:01:14.466Z,5.53
2022-10-27T01:03:41.938Z,5.75
2022-10-27T01:06:09.163Z,6.90
2022-10-27T01:08:37.737Z,6.07
2022-10-27T01:11:04.351Z,6.10
2022-10-27T01:13:31.323Z,5.85
2022-10-27T01:16:37.490Z,6.13
2022-10-27T01:19:22.897Z,6.07
2022-10-27T01:22:02.831Z,5.40
2022-10-27T01:24:32.293Z,5.22
2022-10-27T01:27:20.989Z,6.00
2022-10-27T01:30:11.683Z,5.72
2022-10-27T01:32:38.244Z,4.85
2022-10-27T01:35:41.114Z,5.60
2022-10-27T01:38:26.820Z,5.53
2022-10-27T01:41:02.199Z,6.25
2022-10-27T01:43:30.933Z,5.50
2022-10-27T01:45:59.467Z,5.50
2022-10-27T01:48:26.101Z,5.30
2022-10-27T01:51:07.821Z,4.88
2022-10-27T01:53:41.447Z,5.00
2022-10-27T01:56:39.473Z,5.20
2022-10-27T01:59:24.609Z,5.07
2022-10-27T02:02:15.253Z,5.32
2022-10-27T02:05:18.937Z,5.25
2022-10-27T02:08:03.100Z,4.95
2022-10-27T02:10:35.937Z,4.97
2022-10-27T02:13:04.168Z,4.70
2022-10-27T02:15:38.256Z,5.20
2022-10-27T02:18:15.073Z,5.30
2022-10-27T02:20:46.437Z,5.28
2022-10-27T02:23:17.515Z,4.80
2022-10-27T02:26:04.436Z,4.55
2022-10-27T02:28:47.633Z,4.97
2022-10-27T02:31:17.797Z,4.65
2022-10-27T02:33:44.664Z,5.43
2022-10-27T02:36:11.212Z,5.05
2022-10-27T02:38:37.917Z,5.07
2022-10-27T02:41:04.710Z,5.25
2022-10-27T02:43:31.319Z,5.63
2022-10-27T02:45:57.840Z,5.38
2022-10-27T02:48:24.412Z,4.88
2022-10-27T02:50:50.984Z,5.88
2022-10-27T02:53:17.563Z,5.45
2022-10-27T02:55:44.154Z,5.20
2022-10-27T02:58:10.908Z,5.07
2022-10-27T03:00:37.467Z,5.15
2022-10-27T03:03:04.112Z,5.40
2022-10-27T03:05:30.685Z,5.28
2022-10-27T03:07:57.235Z,5.32
2022-10-27T03:10:23.789Z,6.47
2022-10-27T03:12:50.758Z,5.90
2022-10-27T03:15:17.650Z,5.78
2022-10-27T03:17:48.475Z,6.45
2022-10-27T03:20:16.237Z,6.00
2022-10-27T03:22:42.839Z,6.75
2022-10-27T03:25:11.655Z,6.25
2022-10-27T03:27:43.169Z,6.53
2022-10-27T03:30:12.802Z,6.28
2022-10-27T03:32:39.560Z,7.40
2022-10-27T03:35:07.124Z,6.85
2022-10-27T03:37:33.715Z,7.32
2022-10-27T03:40:00.266Z,6.57
2022-10-27T03:42:26.949Z,8.02
2022-10-27T03:44:53.510Z,7.10
2022-10-27T03:47:20.123Z,7.13
2022-10-27T03:49:46.828Z,6.82
2022-10-27T03:52:13.652Z,7.38
2022-10-27T03:54:40.329Z,6.53
2022-10-27T03:57:07.130Z,6.68
2022-10-27T03:59:33.674Z,6.50
2022-10-27T04:02:02.305Z,6.18
2022-10-27T04:04:31.596Z,5.75
2022-10-27T04:06:58.135Z,6.50
2022-10-27T04:09:24.682Z,6.32
2022-10-27T04:11:51.412Z,6.30
2022-10-27T04:14:18.692Z,5.93
2022-10-27T04:16:51.661Z,5.80
2022-10-27T04:19:19.231Z,5.90
2022-10-27T04:21:46.502Z,5.65
2022-10-27T04:24:13.581Z,5.57
2022-10-27T04:26:40.621Z,5.43
2022-10-27T04:29:07.147Z,5.38
2022-10-27T04:31:33.852Z,5.57
2022-10-27T04:34:00.462Z,5.43
2022-10-27T04:36:27.012Z,5.40
2022-10-27T04:38:53.651Z,5.07
2022-10-27T04:41:20.285Z,5.15
2022-10-27T04:46:18.617Z,5.13
2022-10-27T04:48:45.193Z,4.40
2022-10-27T04:51:11.728Z,4.80
2022-10-27T04:53:38.270Z,4.20
2022-10-27T04:56:05.037Z,5.03
2022-10-27T04:58:31.685Z,4.40
2022-10-27T05:00:58.302Z,4.63
2022-10-27T05:03:24.825Z,4.65
2022-10-27T05:05:51.483Z,4.55
2022-10-27T05:08:18.079Z,4.88
2022-10-27T05:10:46.697Z,5.05
2022-10-27T05:13:13.248Z,5.45
2022-10-27T05:15:39.841Z,4.97
2022-10-27T05:18:09.368Z,4.78
2022-10-27T05:20:37.482Z,5.07
2022-10-27T05:23:04.082Z,5.10
2022-10-27T05:25:30.672Z,5.18
2022-10-27T05:28:08.646Z,5.18
2022-10-27T05:30:35.818Z,4.90
2022-10-27T05:33:02.749Z,5.15
2022-10-27T05:35:29.803Z,5.18
2022-10-27T05:37:56.389Z,6.10
2022-10-27T05:40:23.086Z,6.05
2022-10-27T05:42:58.502Z,5.20
2022-10-27T05:45:25.270Z,5.43
2022-10-27T05:48:02.943Z,6.00
2022-10-27T05:50:29.916Z,5.70
2022-10-27T05:52:56.941Z,5.82
2022-10-27T05:55:24.699Z,6.43
2022-10-27T05:58:03.741Z,6.32
2022-10-27T06:00:37.229Z,5.72
2022-10-27T06:03:06.940Z,6.60
2022-10-27T06:05:36.740Z,6.25
2022-10-27T06:08:03.458Z,6.38
2022-10-27T06:10:30.045Z,5.88
2022-10-27T06:13:05.025Z,6.50
2022-10-27T06:15:33.212Z,6.43
2022-10-27T06:17:59.929Z,5.93
2022-10-27T06:20:27.603Z,6.20
2022-10-27T06:22:54.324Z,6.22
2022-10-27T06:25:21.080Z,6.68
2022-10-27T06:27:47.963Z,6.47
2022-10-27T06:30:14.748Z,6.28
2022-10-27T06:32:42.079Z,6.05
2022-10-27T06:35:09.716Z,6.55
2022-10-27T06:37:40.506Z,6.97
2022-10-27T06:40:08.327Z,6.30
2022-10-27T06:42:48.933Z,6.82
2022-10-27T06:45:25.702Z,6.95
2022-10-27T06:48:01.668Z,6.93
2022-10-27T06:50:28.260Z,6.90
2022-10-27T06:52:54.903Z,6.38
2022-10-27T06:55:21.960Z,6.32
2022-10-27T06:57:48.845Z,6.47
2022-10-27T07:00:15.928Z,6.13
2022-10-27T07:02:42.699Z,6.68
2022-10-27T07:05:09.917Z,6.38
2022-10-27T07:07:36.664Z,6.80
2022-10-27T07:10:04.897Z,6.68
2022-10-27T07:12:31.549Z,7.13
2022-10-27T07:14:58.210Z,6.35
2022-10-27T07:17:25.095Z,6.00
2022-10-27T07:19:51.677Z,5.25
2022-10-27T07:22:18.670Z,5.00
2022-10-27T07:24:45.204Z,5.20
2022-10-27T07:27:11.972Z,5.28
2022-10-27T07:29:38.563Z,4.85
2022-10-27T07:32:05.208Z,5.80
2022-10-27T07:34:31.776Z,5.28
2022-10-27T07:36:58.332Z,5.55
2022-10-27T07:39:24.892Z,5.70
2022-10-27T07:41:51.462Z,5.40
2022-10-27T07:44:18.002Z,5.82
2022-10-27T07:46:44.611Z,6.15
2022-10-27T07:49:11.157Z,6.18
2022-10-27T07:51:37.785Z,5.07
2022-10-27T07:54:04.514Z,5.85
2022-10-27T07:56:32.614Z,5.85
2022-10-27T07:58:59.271Z,5.10
2022-10-27T08:01:26.556Z,4.65
2022-10-27T08:03:53.484Z,5.40
2022-10-27T08:06:20.543Z,6.57
2022-10-27T08:08:47.148Z,5.30
2022-10-27T08:11:13.769Z,5.63
2022-10-27T08:13:40.625Z,5.22
2022-10-27T08:16:07.488Z,4.05
2022-10-27T08:18:34.162Z,4.55
2022-10-27T08:21:03.416Z,4.07
2022-10-27T08:23:30.065Z,4.40
2022-10-27T08:25:56.659Z,3.58
2022-10-27T08:28:24.521Z,3.65
2022-10-27T08:30:52.996Z,4.10
2022-10-27T08:33:21.591Z,4.35
2022-10-27T08:35:48.433Z,4.47
2022-10-27T08:38:16.280Z,4.45
2022-10-27T08:41:01.064Z,4.35
2022-10-27T08:43:45.704Z,4.10
2022-10-27T08:46:35.317Z,3.90
2022-10-27T08:49:05.297Z,4.47
2022-10-27T08:51:34.266Z,4.22
2022-10-27T08:54:01.537Z,4.97
2022-10-27T08:56:39.152Z,4.50
2022-10-27T08:59:06.097Z,4.93
2022-10-27T09:01:46.223Z,4.60
2022-10-27T09:04:31.951Z,4.68
2022-10-27T09:12:43.365Z,4.88
2022-10-27T09:15:30.644Z,5.60
2022-10-27T09:18:20.538Z,4.47
2022-10-27T09:20:54.949Z,5.07
2022-10-27T09:23:34.038Z,4.63
2022-10-27T09:26:00.739Z,4.95
2022-10-27T09:28:42.093Z,4.72
2022-10-27T09:31:14.239Z,4.70
2022-10-27T09:33:54.776Z,5.30
2022-10-27T09:36:22.633Z,5.57
2022-10-27T09:38:49.401Z,5.88
2022-10-27T09:41:16.749Z,6.30
2022-10-27T09:43:43.505Z,6.07
2022-10-27T09:46:25.047Z,5.57
2022-10-27T09:49:18.858Z,5.93
2022-10-27T09:51:51.689Z,6.18
2022-10-27T09:54:31.453Z,5.05
2022-10-27T09:57:19.362Z,5.40
2022-10-27T10:00:08.528Z,5.22
2022-10-27T10:02:48.025Z,6.57
2022-10-27T10:05:22.019Z,5.60
2022-10-27T10:07:48.876Z,5.47
2022-10-27T10:10:32.185Z,5.50
2022-10-27T10:13:01.793Z,5.22
2022-10-27T10:15:29.275Z,6.00
2022-10-27T10:17:57.357Z,6.00
2022-10-27T10:23:23.658Z,6.90
2022-10-27T10:25:51.999Z,6.45
2022-10-27T10:28:40.879Z,6.47
2022-10-27T10:31:10.904Z,5.35
2022-10-27T10:33:40.539Z,5.93
2022-10-27T10:36:39.828Z,5.82
2022-10-27T10:39:26.516Z,5.35
2022-10-27T10:42:14.748Z,5.25
2022-10-27T10:44:41.632Z,6.10
2022-10-27T10:47:28.775Z,4.80
2022-10-27T10:50:02.015Z,4.45
2022-10-27T10:52:37.641Z,4.80
2022-10-27T10:55:15.884Z,4.00
2022-10-27T10:57:48.206Z,4.05
2022-10-27T11:00:17.133Z,3.80
2022-10-27T11:02:59.089Z,3.30
2022-10-27T11:05:31.627Z,3.13
2022-10-27T11:07:59.012Z,3.20
2022-10-27T11:10:33.162Z,3.25
2022-10-27T11:13:15.387Z,2.80
2022-10-27T11:15:59.917Z,3.13
2022-10-27T11:19:00.351Z,3.28
2022-10-27T11:21:33.728Z,3.03
2022-10-27T11:24:22.940Z,2.92
2022-10-27T11:27:26.176Z,3.38
2022-10-27T11:32:50.517Z,3.33
2022-10-27T11:35:52.774Z,3.33
2022-10-27T11:38:43.884Z,3.33
2022-10-27T11:41:39.235Z,2.78
2022-10-27T11:44:32.500Z,2.97
2022-10-27T11:47:04.212Z,2.65
2022-10-27T11:49:48.792Z,2.60
2022-10-27T11:52:35.126Z,2.40
2022-10-27T11:55:04.203Z,2.60
2022-10-27T11:57:59.716Z,2.80
2022-10-27T12:00:54.707Z,2.70
2022-10-27T12:03:48.632Z,2.80
2022-10-27T12:09:23.464Z,2.90
2022-10-27T12:12:11.849Z,2.95
2022-10-27T12:14:58.448Z,2.38
2022-10-27T12:17:35.313Z,2.88
2022-10-27T12:20:04.597Z,2.67
2022-10-27T12:22:37.245Z,2.80
2022-10-27T12:25:21.267Z,2.63
2022-10-27T12:27:52.774Z,2.83
2022-10-27T12:30:22.713Z,2.72
2022-10-27T12:32:59.078Z,2.85
2022-10-27T12:35:53.707Z,3.08
2022-10-27T12:38:32.026Z,2.88
2022-10-27T12:41:16.343Z,2.17
2022-10-27T12:44:07.532Z,2.67
2022-10-27T12:47:07.331Z,2.65
2022-10-27T12:49:48.252Z,2.30
2022-10-27T12:52:27.434Z,2.78
2022-10-27T12:55:28.321Z,2.78
2022-10-27T12:58:10.435Z,2.72
2022-10-27T13:01:13.844Z,2.50
2022-10-27T13:04:24.352Z,2.80
2022-10-27T13:07:00.100Z,2.13
2022-10-27T13:10:02.498Z,2.60
2022-10-27T13:13:04.606Z,2.90
2022-10-27T13:15:59.811Z,2.63
2022-10-27T13:18:35.145Z,2.50
2022-10-27T13:21:20.416Z,2.63
2022-10-27T13:23:58.342Z,2.60
2022-10-27T13:26:45.123Z,2.47
2022-10-27T13:29:29.183Z,2.60
2022-10-27T13:32:26.555Z,2.33
2022-10-27T13:35:02.093Z,2.75
2022-10-27T13:37:41.177Z,2.60
2022-10-27T13:40:20.259Z,2.45
2022-10-27T13:42:51.857Z,2.70
2022-10-27T13:45:27.540Z,2.38
2022-10-27T13:48:13.515Z,3.03
2022-10-27T13:50:50.282Z,2.20
2022-10-27T13:53:17.629Z,2.90
2022-10-27T13:55:54.724Z,2.78
2022-10-27T13:58:51.480Z,2.33
2022-10-27T14:01:42.889Z,2.55
2022-10-27T14:04:32.347Z,2.67
2022-10-27T14:07:01.933Z,2.45
2022-10-27T14:09:46.948Z,2.75
2022-10-27T14:12:23.295Z,2.42
2022-10-27T14:14:54.940Z,2.63
2022-10-27T14:17:24.897Z,3.08
2022-10-27T14:20:18.233Z,2.65
2022-10-27T14:22:50.734Z,2.60
2022-10-27T14:25:29.392Z,2.83
2022-10-27T14:28:16.015Z,2.50
2022-10-27T14:30:44.453Z,3.35
2022-10-27T14:33:25.539Z,3.67
2022-10-27T14:36:10.882Z,3.78
2022-10-27T14:41:19.879Z,2.92
2022-10-27T14:43:52.868Z,3.33
2022-10-27T14:46:22.973Z,3.10
2022-10-27T14:49:02.505Z,3.15
2022-10-27T14:51:33.683Z,3.10
2022-10-27T14:54:00.984Z,3.10
2022-10-27T14:56:29.985Z,3.70
2022-10-27T14:59:15.749Z,3.17
2022-10-27T15:01:43.730Z,3.10
2022-10-27T15:04:26.948Z,3.60
2022-10-27T15:07:02.430Z,3.65
2022-10-27T15:09:37.791Z,3.97
2022-10-27T15:12:05.926Z,3.35
2022-10-27T15:14:34.602Z,3.80
2022-10-27T15:17:07.382Z,4.60
2022-10-27T15:22:04.416Z,3.83
2022-10-27T15:24:31.387Z,4.22
2022-10-27T15:26:58.220Z,4.20
2022-10-27T15:29:25.020Z,3.78
2022-10-27T15:31:59.823Z,4.43
2022-10-27T15:34:37.808Z,3.88
2022-10-27T15:37:23.444Z,4.68
2022-10-27T15:39:51.714Z,4.53
2022-10-27T15:42:23.729Z,4.32
2022-10-27T15:44:51.842Z,4.55
2022-10-27T15:47:41.219Z,4.43
2022-10-27T15:50:21.189Z,4.47
2022-10-27T15:52:47.752Z,5.10
2022-10-27T15:55:37.751Z,4.60
2022-10-27T15:58:29.409Z,4.15
2022-10-27T16:01:02.636Z,5.10
2022-10-27T16:03:35.350Z,5.30
2022-10-27T16:06:20.535Z,4.82
2022-10-27T16:08:47.236Z,5.20
2022-10-27T16:11:14.819Z,5.03
2022-10-27T16:13:47.549Z,4.80
2022-10-27T16:16:14.483Z,5.35
2022-10-27T16:18:42.885Z,5.43
2022-10-27T16:21:22.415Z,5.55
2022-10-27T16:23:51.841Z,4.72
2022-10-27T16:26:24.941Z,5.65
2022-10-27T16:28:54.932Z,5.30
2022-10-27T16:31:27.337Z,5.70
2022-10-27T16:33:55.009Z,5.82
2022-10-27T16:36:21.900Z,6.45
2022-10-27T16:38:49.500Z,7.10
2022-10-27T16:41:24.945Z,7.90
2022-10-27T16:43:51.735Z,12.45
2022-10-27T16:46:18.319Z,9.15
2022-10-27T16:48:44.961Z,7.03
2022-10-27T16:51:15.915Z,7.65
2022-10-27T16:53:43.005Z,7.35
2022-10-27T16:56:12.875Z,7.35
2022-10-27T16:58:45.332Z,9.65
2022-10-27T17:01:18.900Z,10.82
2022-10-27T17:03:46.329Z,8.05
2022-10-27T17:06:13.681Z,7.90
2022-10-27T17:08:40.601Z,10.43
2022-10-27T17:11:12.777Z,9.40
2022-10-27T17:13:39.954Z,7.80
2022-10-27T17:16:07.387Z,8.43
2022-10-27T17:18:34.859Z,7.82
2022-10-27T17:21:01.912Z,7.95
2022-10-27T17:23:29.242Z,6.75
2022-10-27T17:26:07.353Z,7.85
2022-10-27T17:28:34.446Z,7.55
2022-10-27T17:31:04.278Z,9.15
2022-10-27T17:33:32.241Z,7.97
2022-10-27T17:36:01.150Z,7.05
2022-10-27T17:38:28.008Z,7.40
2022-10-27T17:40:56.529Z,7.60
2022-10-27T17:43:24.390Z,7.82
2022-10-27T17:46:01.470Z,7.45
2022-10-27T17:48:39.294Z,8.55
2022-10-27T17:51:11.584Z,9.80
2022-10-27T17:53:39.101Z,10.10
2022-10-27T17:56:08.389Z,9.48
2022-10-27T17:58:37.219Z,9.45
2022-10-27T18:01:15.814Z,10.98
2022-10-27T18:03:44.318Z,12.88
2022-10-27T18:06:13.560Z,12.73
2022-10-27T18:08:40.502Z,13.13
2022-10-27T18:11:12.148Z,12.00
2022-10-27T18:13:44.101Z,11.07
2022-10-27T18:16:22.025Z,10.63
2022-10-27T18:18:53.174Z,9.30
2022-10-27T18:21:22.110Z,10.02
2022-10-27T18:23:50.436Z,10.25
2022-10-27T18:26:17.537Z,9.50
2022-10-27T18:28:46.142Z,10.13
2022-10-27T18:31:14.488Z,10.50
2022-10-27T18:33:47.497Z,10.63
2022-10-27T18:36:16.884Z,9.75
2022-10-27T18:38:43.755Z,11.23
2022-10-27T18:41:15.952Z,10.93
2022-10-27T18:43:50.293Z,11.82
2022-10-27T18:46:18.750Z,11.77
2022-10-27T18:48:53.731Z,12.00
2022-10-27T18:51:21.201Z,11.90
2022-10-27T18:53:52.385Z,11.50
2022-10-27T18:56:19.067Z,9.80
2022-10-27T18:58:55.534Z,9.98
2022-10-27T19:01:22.912Z,10.20
2022-10-27T19:03:54.006Z,12.05
2022-10-27T19:06:21.022Z,10.93
2022-10-27T19:08:47.664Z,10.70
2022-10-27T19:11:15.663Z,11.18
2022-10-27T19:13:42.606Z,10.82
2022-10-27T19:16:18.875Z,11.27
2022-10-27T19:18:46.372Z,10.70
2022-10-27T19:21:17.719Z,9.73
2022-10-27T19:23:45.489Z,10.55
2022-10-27T19:26:18.604Z,10.57
2022-10-27T19:28:47.326Z,11.07
2022-10-27T19:31:23.282Z,10.73
2022-10-27T19:33:51.153Z,10.50
2022-10-27T19:36:26.903Z,10.57
2022-10-27T19:38:53.922Z,9.98
2022-10-27T19:41:24.916Z,11.75
2022-10-27T19:43:53.845Z,11.85
2022-10-27T19:46:20.827Z,12.27
2022-10-27T19:48:55.208Z,12.63
2022-10-27T19:51:35.019Z,13.07
2022-10-27T19:54:02.468Z,12.40
2022-10-27T19:56:34.272Z,13.95
2022-10-27T19:59:03.620Z,13.57
2022-10-27T20:01:37.857Z,13.15
2022-10-27T20:04:13.341Z,12.00
2022-10-27T20:06:46.225Z,13.95
2022-10-27T20:09:17.824Z,13.10
2022-10-27T20:11:46.076Z,12.88
2022-10-27T20:14:14.229Z,14.05
2022-10-27T20:16:43.268Z,13.60
2022-10-27T20:19:15.603Z,14.00
2022-10-27T20:21:42.436Z,14.32
2022-10-27T20:24:12.018Z,14.32
2022-10-27T20:26:40.077Z,12.43
2022-10-27T20:29:07.104Z,12.98
2022-10-27T20:31:33.999Z,13.02
2022-10-27T20:34:00.962Z,12.32
2022-10-27T20:36:27.512Z,12.68
2022-10-27T20:38:55.444Z,12.50
2022-10-27T20:41:23.335Z,11.95
2022-10-27T20:43:54.998Z,12.15
2022-10-27T20:46:22.685Z,13.05
2022-10-27T20:48:50.843Z,11.73
2022-10-27T20:51:18.039Z,11.50
2022-10-27T20:53:44.904Z,12.48
2022-10-27T20:56:25.991Z,12.73
2022-10-27T20:58:52.820Z,10.95
2022-10-27T21:01:48.374Z,10.95
2022-10-27T21:04:17.490Z,11.75
2022-10-27T21:06:47.712Z,12.20
2022-10-27T21:09:16.324Z,12.63
2022-10-27T21:11:44.400Z,13.20
2022-10-27T21:14:12.172Z,12.23
2022-10-27T21:16:38.934Z,13.07
2022-10-27T21:19:07.551Z,13.15
2022-10-27T21:21:34.834Z,11.80
2022-10-27T21:24:03.261Z,11.65
2022-10-27T21:26:30.527Z,11.32
2022-10-27T21:28:58.454Z,11.55
2022-10-27T21:31:28.698Z,12.18
2022-10-27T21:33:56.189Z,11.32
2022-10-27T21:36:23.417Z,10.80
2022-10-27T21:38:50.904Z,11.27
2022-10-27T21:41:22.185Z,11.70
2022-10-27T21:43:50.576Z,11.10
2022-10-27T21:46:19.896Z,10.77
2022-10-27T21:48:46.770Z,10.65
2022-10-27T21:51:14.989Z,10.32
2022-10-27T21:53:42.197Z,10.18
2022-10-27T21:56:11.389Z,9.38
2022-10-27T21:58:38.519Z,9.45
2022-10-27T22:01:06.365Z,9.48
2022-10-27T22:03:33.448Z,9.05
2022-10-27T22:06:00.071Z,9.32
2022-10-27T22:08:26.718Z,9.70
2022-10-27T22:10:53.432Z,9.70
2022-10-27T22:13:20.630Z,9.18
2022-10-27T22:15:47.153Z,9.25
2022-10-27T22:18:13.914Z,9.98
2022-10-27T22:20:40.497Z,8.15
2022-10-27T22:23:07.441Z,7.97
2022-10-27T22:25:40.124Z,8.73
2022-10-27T22:28:07.978Z,8.98
2022-10-27T22:30:37.414Z,8.30
2022-10-27T22:33:04.657Z,8.30
2022-10-27T22:35:35.380Z,7.68
2022-10-27T22:38:01.986Z,8.40
2022-10-27T22:40:28.610Z,8.85
2022-10-27T22:42:55.144Z,8.18
2022-10-27T22:45:21.721Z,8.95
2022-10-27T22:47:48.279Z,8.20
2022-10-27T22:50:14.902Z,9.00
2022-10-27T22:52:41.433Z,8.60
2022-10-27T22:55:08.461Z,8.43
2022-10-27T22:57:35.210Z,8.85
2022-10-27T23:00:01.782Z,8.73
2022-10-27T23:02:28.382Z,8.98
2022-10-27T23:04:55.046Z,8.85
2022-10-27T23:07:21.618Z,8.45
2022-10-27T23:09:48.336Z,8.38
2022-10-27T23:12:14.880Z,9.15
2022-10-27T23:14:41.496Z,9.05
2022-10-27T23:17:08.147Z,9.20
2022-10-27T23:19:34.882Z,9.57
2022-10-27T23:22:01.421Z,9.30
2022-10-27T23:24:27.959Z,10.82
2022-10-27T23:26:54.644Z,9.60
2022-10-27T23:29:21.268Z,11.25
2022-10-27T23:31:47.912Z,10.07
2022-10-27T23:34:14.455Z,9.48
2022-10-27T23:36:44.200Z,9.63
2022-10-27T23:39:10.982Z,9.23
2022-10-27T23:41:37.549Z,9.38
2022-10-27T23:44:04.416Z,9.48
2022-10-27T23:46:31.465Z,8.70
2022-10-27T23:48:58.788Z,9.50
2022-10-27T23:51:25.892Z,8.75
2022-10-27T23:53:52.517Z,8.38
2022-10-27T23:56:19.201Z,9.77
2022-10-27T23:58:46.542Z,9.05
